createdAt,value
2022-08-08T00:02:45.992Z,64.97
2022-08-08T00:06:07.789Z,64.97
2022-08-08T00:09:24.540Z,64.85
2022-08-08T00:12:36.135Z,64.64
2022-08-08T00:15:56.877Z,64.50
2022-08-08T00:19:25.381Z,64.54
2022-08-08T00:22:43.933Z,63.98
2022-08-08T00:25:55.188Z,64.06
2022-08-08T00:29:03.784Z,64.08
2022-08-08T00:32:20.137Z,64.49
2022-08-08T00:35:30.047Z,64.61
2022-08-08T00:38:55.793Z,64.36
2022-08-08T00:42:19.729Z,64.35
2022-08-08T00:45:37.424Z,64.12
2022-08-08T00:49:32.345Z,64.08
2022-08-08T00:53:23.470Z,64.02
2022-08-08T00:57:19.717Z,63.73
2022-08-08T01:00:44.784Z,63.54
2022-08-08T01:04:22.804Z,63.46
2022-08-08T01:07:56.909Z,63.59
2022-08-08T01:11:38.809Z,63.70
2022-08-08T01:15:43.426Z,63.70
2022-08-08T01:19:13.501Z,63.72
2022-08-08T01:22:35.721Z,63.66
2022-08-08T01:26:16.979Z,63.65
2022-08-08T01:29:59.816Z,63.70
2022-08-08T01:33:23.930Z,63.68
2022-08-08T01:36:51.563Z,63.57
2022-08-08T01:40:43.863Z,63.67
2022-08-08T01:44:26.316Z,63.70
2022-08-08T01:48:31.401Z,63.86
2022-08-08T01:52:42.253Z,63.88
2022-08-08T01:56:28.198Z,63.65
2022-08-08T01:59:02.747Z,63.69
2022-08-08T02:02:41.687Z,63.66
2022-08-08T02:06:01.562Z,63.31
2022-08-08T02:10:03.559Z,62.99
2022-08-08T02:13:03.787Z,62.99
2022-08-08T02:16:20.646Z,62.99
2022-08-08T02:19:57.142Z,63.17
2022-08-08T02:23:16.067Z,63.20
2022-08-08T02:26:25.692Z,63.31
2022-08-08T02:29:52.827Z,63.57
2022-08-08T02:33:02.813Z,63.65
2022-08-08T02:36:47.538Z,63.99
2022-08-08T02:40:07.391Z,64.82
2022-08-08T02:44:42.734Z,65.18
2022-08-08T02:46:43.890Z,65.40
2022-08-08T02:50:30.292Z,65.09
2022-08-08T02:54:15.393Z,64.52
2022-08-08T02:57:50.711Z,63.69
2022-08-08T03:01:39.738Z,63.03
2022-08-08T03:05:20.530Z,62.27
2022-08-08T03:09:12.418Z,61.40
2022-08-08T03:13:01.713Z,60.82
2022-08-08T03:16:35.807Z,59.95
2022-08-08T03:20:03.745Z,58.82
2022-08-08T03:23:10.709Z,58.16
2022-08-08T03:26:18.896Z,57.71
2022-08-08T03:29:54.517Z,57.11
2022-08-08T03:33:03.857Z,57.29
2022-08-08T03:35:59.586Z,56.84
2022-08-08T03:38:56.393Z,56.97
2022-08-08T03:42:27.824Z,56.62
2022-08-08T03:46:05.979Z,56.49
2022-08-08T03:49:09.479Z,56.52
2022-08-08T03:51:50.511Z,55.65
2022-08-08T03:54:41.155Z,55.32
2022-08-08T03:58:36.460Z,55.03
2022-08-08T04:01:02.285Z,54.31
2022-08-08T04:04:05.038Z,53.97
2022-08-08T04:07:12.719Z,53.59
2022-08-08T04:10:22.515Z,53.31
2022-08-08T04:13:29.407Z,52.96
2022-08-08T04:16:40.377Z,52.13
2022-08-08T04:19:45.351Z,52.19
2022-08-08T04:22:51.779Z,51.73
2022-08-08T04:26:02.112Z,51.39
2022-08-08T04:29:07.463Z,51.05
2022-08-08T04:32:14.090Z,50.88
2022-08-08T04:35:22.900Z,50.75
2022-08-08T04:38:28.533Z,50.75
2022-08-08T04:41:35.763Z,51.00
2022-08-08T04:44:42.970Z,50.88
2022-08-08T04:47:50.394Z,50.33
2022-08-08T04:50:58.418Z,49.57
2022-08-08T04:54:38.311Z,49.02
2022-08-08T04:57:13.593Z,48.81
2022-08-08T05:00:21.417Z,48.76
2022-08-08T05:04:10.926Z,49.24
2022-08-08T05:06:36.504Z,49.73
2022-08-08T05:09:43.106Z,49.53
2022-08-08T05:13:00.172Z,49.67
2022-08-08T05:16:51.871Z,49.55
2022-08-08T05:19:03.310Z,50.19
2022-08-08T05:22:04.187Z,49.72
2022-08-08T05:25:12.774Z,49.51
2022-08-08T05:28:52.422Z,49.72
2022-08-08T05:32:04.257Z,48.77
2022-08-08T05:34:38.903Z,48.73
2022-08-08T05:37:49.203Z,48.92
2022-08-08T05:40:46.070Z,48.05
2022-08-08T05:44:03.139Z,48.23
2022-08-08T05:47:02.987Z,46.96
2022-08-08T05:50:08.589Z,47.79
2022-08-08T05:53:53.839Z,47.28
2022-08-08T05:56:23.203Z,46.54
2022-08-08T05:59:59.684Z,47.01
2022-08-08T06:03:03.916Z,44.39
2022-08-08T06:06:18.300Z,43.88
2022-08-08T06:10:00.168Z,43.47
2022-08-08T06:12:32.979Z,44.14
2022-08-08T06:15:50.789Z,42.81
2022-08-08T06:18:44.651Z,42.13
2022-08-08T06:21:57.331Z,41.22
2022-08-08T06:25:02.557Z,41.58
2022-08-08T06:28:13.849Z,42.03
2022-08-08T06:31:22.026Z,41.68
2022-08-08T06:34:31.646Z,40.74
2022-08-08T06:37:39.515Z,40.27
2022-08-08T06:40:48.789Z,40.79
2022-08-08T06:43:58.691Z,39.36
2022-08-08T06:47:06.259Z,39.56
2022-08-08T06:50:12.788Z,39.49
2022-08-08T06:53:21.514Z,38.18
2022-08-08T06:56:27.553Z,38.57
2022-08-08T06:59:35.355Z,39.32
2022-08-08T07:02:46.287Z,39.37
2022-08-08T07:06:01.756Z,38.28
2022-08-08T07:09:02.214Z,38.13
2022-08-08T07:12:12.488Z,38.52
2022-08-08T07:15:31.938Z,39.25
2022-08-08T07:18:35.143Z,38.03
2022-08-08T07:21:34.042Z,38.59
2022-08-08T07:24:46.414Z,37.13
2022-08-08T07:28:02.661Z,37.07
2022-08-08T07:31:05.165Z,37.16
2022-08-08T07:34:26.651Z,37.42
2022-08-08T07:37:20.668Z,37.12
2022-08-08T07:40:29.909Z,35.93
2022-08-08T07:43:37.736Z,34.89
2022-08-08T07:46:43.716Z,35.14
2022-08-08T07:49:50.997Z,35.86
2022-08-08T07:53:05.227Z,35.55
2022-08-08T07:56:12.760Z,35.17
2022-08-08T07:59:22.154Z,36.22
2022-08-08T08:02:36.712Z,36.10
2022-08-08T08:05:40.367Z,34.26
2022-08-08T08:08:56.561Z,34.51
2022-08-08T08:12:04.455Z,34.51
2022-08-08T08:15:17.297Z,34.42
2022-08-08T08:18:31.686Z,34.40
2022-08-08T08:21:44.432Z,34.04
2022-08-08T08:24:38.142Z,34.06
2022-08-08T08:27:47.462Z,34.34
2022-08-08T08:30:55.854Z,33.52
2022-08-08T08:34:02.478Z,33.94
2022-08-08T08:37:10.216Z,34.06
2022-08-08T08:40:19.147Z,33.22
2022-08-08T08:43:26.877Z,31.90
2022-08-08T08:46:31.685Z,32.66
2022-08-08T08:49:38.594Z,32.74
2022-08-08T08:52:58.560Z,32.58
2022-08-08T08:55:53.888Z,34.01
2022-08-08T08:59:03.557Z,31.65
2022-08-08T09:02:12.009Z,30.47
2022-08-08T09:05:29.040Z,29.95
2022-08-08T09:08:26.600Z,28.95
2022-08-08T09:11:34.399Z,29.73
2022-08-08T09:14:42.705Z,30.07
2022-08-08T09:17:55.426Z,29.81
2022-08-08T09:22:01.799Z,29.50
2022-08-08T09:24:09.098Z,29.84
2022-08-08T09:27:22.196Z,29.31
2022-08-08T09:30:28.730Z,29.16
2022-08-08T09:34:15.192Z,28.55
2022-08-08T09:36:37.862Z,29.02
2022-08-08T09:39:38.312Z,25.33
2022-08-08T09:42:52.339Z,24.83
2022-08-08T09:46:25.681Z,25.20
2022-08-08T09:49:42.724Z,24.83
2022-08-08T09:52:55.804Z,26.45
2022-08-08T09:56:04.618Z,25.11
2022-08-08T09:58:57.695Z,25.31
2022-08-08T10:02:12.708Z,24.97
2022-08-08T10:05:25.485Z,25.14
2022-08-08T10:08:30.961Z,25.07
2022-08-08T10:12:26.352Z,25.89
2022-08-08T10:14:49.761Z,25.43
2022-08-08T10:18:11.592Z,24.43
2022-08-08T10:21:25.988Z,25.45
2022-08-08T10:24:35.068Z,25.78
2022-08-08T10:27:37.919Z,24.60
2022-08-08T10:31:00.662Z,24.82
2022-08-08T10:34:19.564Z,25.66
2022-08-08T10:36:59.863Z,25.54
2022-08-08T10:40:07.330Z,24.97
2022-08-08T10:43:18.424Z,25.32
2022-08-08T10:46:34.292Z,26.24
2022-08-08T10:50:01.550Z,25.73
2022-08-08T10:52:52.077Z,25.91
2022-08-08T10:55:57.655Z,26.36
2022-08-08T10:59:18.254Z,25.72
2022-08-08T11:02:25.318Z,26.16
2022-08-08T11:05:38.917Z,23.71
2022-08-08T11:08:53.277Z,24.80
2022-08-08T11:12:04.598Z,23.71
2022-08-08T11:15:07.764Z,23.17
2022-08-08T11:18:02.319Z,23.06
2022-08-08T11:21:09.103Z,23.84
2022-08-08T11:24:17.723Z,24.66
2022-08-08T11:27:24.188Z,24.41
2022-08-08T11:30:31.790Z,24.35
2022-08-08T11:33:53.135Z,22.61
2022-08-08T11:36:45.807Z,22.65
2022-08-08T11:39:57.332Z,23.61
2022-08-08T11:42:59.692Z,22.61
2022-08-08T11:46:11.859Z,21.80
2022-08-08T11:49:07.283Z,22.28
2022-08-08T11:52:30.610Z,22.44
2022-08-08T11:55:35.609Z,21.62
2022-08-08T11:58:47.892Z,21.85
2022-08-08T12:02:09.712Z,22.06
2022-08-08T12:04:55.553Z,22.80
2022-08-08T12:08:07.180Z,22.55
2022-08-08T12:11:18.229Z,22.47
2022-08-08T12:14:23.367Z,21.48
2022-08-08T12:17:28.783Z,21.92
2022-08-08T12:20:34.721Z,21.52
2022-08-08T12:23:59.385Z,21.50
2022-08-08T12:27:01.331Z,21.54
2022-08-08T12:30:18.382Z,21.21
2022-08-08T12:33:18.091Z,21.88
2022-08-08T12:36:28.584Z,21.34
2022-08-08T12:40:00.129Z,22.06
2022-08-08T12:42:59.808Z,21.92
2022-08-08T12:46:07.876Z,20.83
2022-08-08T12:49:40.236Z,21.69
2022-08-08T12:52:28.552Z,21.03
2022-08-08T12:55:56.474Z,20.83
2022-08-08T12:58:41.058Z,20.36
2022-08-08T13:01:52.269Z,20.82
2022-08-08T13:05:05.978Z,20.26
2022-08-08T13:08:09.333Z,20.38
2022-08-08T13:11:18.077Z,20.89
2022-08-08T13:14:24.041Z,21.00
2022-08-08T13:17:54.391Z,21.62
2022-08-08T13:20:39.464Z,20.45
2022-08-08T13:23:47.210Z,20.26
2022-08-08T13:26:54.927Z,20.51
2022-08-08T13:30:16.018Z,20.10
2022-08-08T13:33:19.695Z,20.57
2022-08-08T13:36:26.772Z,20.65
2022-08-08T13:39:32.523Z,20.61
2022-08-08T13:42:39.184Z,20.93
2022-08-08T13:45:40.755Z,20.47
2022-08-08T13:48:47.260Z,20.62
2022-08-08T13:51:54.683Z,21.18
2022-08-08T13:55:01.338Z,20.43
2022-08-08T13:58:17.098Z,20.52
2022-08-08T14:01:32.911Z,21.35
2022-08-08T14:04:53.014Z,20.34
2022-08-08T14:07:51.872Z,20.39
2022-08-08T14:10:56.967Z,20.83
2022-08-08T14:14:05.959Z,20.92
2022-08-08T14:17:11.865Z,21.51
2022-08-08T14:20:56.255Z,22.17
2022-08-08T14:24:04.269Z,21.03
2022-08-08T14:26:46.490Z,21.86
2022-08-08T14:29:52.956Z,21.30
2022-08-08T14:33:12.714Z,21.39
2022-08-08T14:36:21.950Z,20.81
2022-08-08T14:39:48.583Z,20.98
2022-08-08T14:42:54.611Z,21.73
2022-08-08T14:46:02.454Z,21.70
2022-08-08T14:49:01.792Z,21.70
2022-08-08T14:52:08.915Z,21.90
2022-08-08T14:55:13.411Z,21.88
2022-08-08T14:58:19.967Z,22.69
2022-08-08T15:01:27.885Z,23.71
2022-08-08T15:04:34.165Z,23.46
2022-08-08T15:07:40.476Z,23.87
2022-08-08T15:10:47.850Z,22.75
2022-08-08T15:14:00.789Z,22.40
2022-08-08T15:17:03.076Z,22.69
2022-08-08T15:20:13.991Z,23.75
2022-08-08T15:23:16.840Z,23.87
2022-08-08T15:26:25.548Z,24.46
2022-08-08T15:29:30.040Z,25.14
2022-08-08T15:32:36.955Z,25.98
2022-08-08T15:35:43.171Z,26.05
2022-08-08T15:38:50.963Z,25.77
2022-08-08T15:41:57.744Z,26.36
2022-08-08T15:45:03.301Z,26.64
2022-08-08T15:48:16.043Z,26.84
2022-08-08T15:51:18.266Z,27.71
2022-08-08T15:54:38.807Z,28.10
2022-08-08T15:57:35.554Z,28.44
2022-08-08T16:00:38.434Z,28.84
2022-08-08T16:03:46.100Z,29.19
2022-08-08T16:06:58.747Z,29.66
2022-08-08T16:13:07.253Z,30.25
2022-08-08T16:13:31.023Z,30.65
2022-08-08T16:16:22.344Z,30.65
2022-08-08T16:19:30.049Z,31.43
2022-08-08T16:22:30.869Z,32.15
2022-08-08T16:25:45.775Z,32.02
2022-08-08T16:28:36.526Z,32.02
2022-08-08T16:31:31.943Z,32.53
2022-08-08T16:34:37.205Z,32.87
2022-08-08T16:37:48.086Z,33.30
2022-08-08T16:40:54.815Z,34.34
2022-08-08T16:44:01.678Z,34.74
2022-08-08T16:47:07.976Z,34.42
2022-08-08T16:50:20.131Z,35.98
2022-08-08T16:55:00.975Z,36.37
2022-08-08T16:56:30.725Z,36.02
2022-08-08T16:59:51.899Z,35.48
2022-08-08T17:02:44.268Z,35.45
2022-08-08T17:05:50.853Z,35.29
2022-08-08T17:08:58.065Z,36.35
2022-08-08T17:12:03.103Z,35.92
2022-08-08T17:15:17.472Z,36.65
2022-08-08T17:18:13.384Z,37.21
2022-08-08T17:21:15.489Z,37.00
2022-08-08T17:24:27.874Z,37.46
2022-08-08T17:27:29.228Z,36.87
2022-08-08T17:30:36.185Z,37.03
2022-08-08T17:33:44.067Z,37.05
2022-08-08T17:37:03.539Z,37.43
2022-08-08T17:40:10.958Z,37.88
2022-08-08T17:42:58.275Z,37.51
2022-08-08T17:45:45.223Z,37.40
2022-08-08T17:48:42.984Z,37.73
2022-08-08T17:51:30.888Z,38.38
2022-08-08T17:54:26.147Z,38.68
2022-08-08T17:57:35.487Z,38.79
2022-08-08T18:00:41.279Z,39.04
2022-08-08T18:03:44.064Z,39.77
2022-08-08T18:06:51.902Z,39.94
2022-08-08T18:09:58.498Z,40.25
2022-08-08T18:13:03.206Z,40.83
2022-08-08T18:16:09.328Z,40.95
2022-08-08T18:19:16.393Z,41.31
2022-08-08T18:22:49.838Z,41.81
2022-08-08T18:25:37.212Z,41.94
2022-08-08T18:28:54.358Z,42.74
2022-08-08T18:31:43.913Z,42.73
2022-08-08T18:34:52.052Z,42.96
2022-08-08T18:37:58.080Z,43.00
2022-08-08T18:41:06.040Z,43.35
2022-08-08T18:44:12.672Z,43.45
2022-08-08T18:47:19.050Z,43.57
2022-08-08T18:50:25.185Z,43.53
2022-08-08T18:53:58.102Z,43.78
2022-08-08T18:56:39.944Z,43.95
2022-08-08T18:59:50.261Z,44.03
2022-08-08T19:02:56.804Z,44.23
2022-08-08T19:06:00.413Z,44.63
2022-08-08T19:09:13.035Z,44.96
2022-08-08T19:12:15.591Z,45.54
2022-08-08T19:15:26.240Z,46.06
2022-08-08T19:18:32.343Z,46.71
2022-08-08T19:21:49.271Z,47.31
2022-08-08T19:25:30.228Z,47.98
2022-08-08T19:27:56.003Z,48.96
2022-08-08T19:31:04.048Z,50.33
2022-08-08T19:34:29.487Z,52.40
2022-08-08T19:37:16.380Z,53.43
2022-08-08T19:40:16.588Z,54.83
2022-08-08T19:43:22.245Z,56.11
2022-08-08T19:46:28.744Z,56.85
2022-08-08T19:49:37.975Z,57.60
2022-08-08T19:52:54.723Z,58.05
2022-08-08T19:55:53.448Z,58.53
2022-08-08T19:59:00.186Z,58.98
2022-08-08T20:02:06.265Z,59.64
2022-08-08T20:05:12.908Z,60.21
2022-08-08T20:08:38.845Z,60.86
2022-08-08T20:11:28.027Z,61.71
2022-08-08T20:14:41.843Z,62.13
2022-08-08T20:17:41.369Z,62.92
2022-08-08T20:20:47.293Z,63.39
2022-08-08T20:23:54.799Z,63.83
2022-08-08T20:27:01.375Z,64.43
2022-08-08T20:30:07.510Z,65.27
2022-08-08T20:36:23.416Z,66.17
2022-08-08T20:39:39.423Z,66.63
2022-08-08T20:42:39.353Z,67.30
2022-08-08T20:45:57.673Z,67.76
2022-08-08T20:48:53.163Z,68.19
2022-08-08T20:52:00.114Z,68.71
2022-08-08T20:55:16.120Z,69.05
2022-08-08T20:58:13.886Z,69.57
2022-08-08T21:01:20.902Z,69.96
2022-08-08T21:04:28.756Z,70.44
2022-08-08T21:08:34.516Z,70.54
2022-08-08T21:10:43.730Z,70.63
2022-08-08T21:13:52.474Z,71.00
2022-08-08T21:17:01.465Z,71.23
2022-08-08T21:20:09.077Z,71.22
2022-08-08T21:23:17.869Z,71.85
2022-08-08T21:26:27.227Z,72.12
2022-08-08T21:30:02.602Z,72.24
2022-08-08T21:32:33.034Z,72.44
2022-08-08T21:36:15.142Z,72.82
2022-08-08T21:38:17.133Z,73.13
2022-08-08T21:41:09.488Z,73.40
2022-08-08T21:44:17.401Z,73.65
2022-08-08T21:48:08.618Z,73.89
2022-08-08T21:50:29.652Z,74.35
2022-08-08T21:54:35.469Z,74.91
2022-08-08T21:56:46.332Z,75.09
2022-08-08T22:00:03.197Z,75.29
2022-08-08T22:03:01.741Z,75.38
2022-08-08T22:06:12.035Z,75.37
2022-08-08T22:09:26.822Z,75.52
2022-08-08T22:12:27.725Z,75.89
2022-08-08T22:15:27.850Z,76.17
2022-08-08T22:18:35.271Z,76.27
2022-08-08T22:21:41.492Z,76.07
2022-08-08T22:24:47.146Z,75.90
2022-08-08T22:28:03.561Z,75.73
2022-08-08T22:31:06.022Z,75.70
2022-08-08T22:34:15.502Z,75.65
2022-08-08T22:37:27.639Z,75.58
2022-08-08T22:40:31.866Z,75.32
2022-08-08T22:43:39.333Z,75.07
2022-08-08T22:46:42.918Z,75.07
2022-08-08T22:49:54.245Z,75.01
2022-08-08T22:54:27.603Z,75.34
2022-08-08T22:56:04.370Z,75.45
2022-08-08T22:59:11.930Z,75.26
2022-08-08T23:02:19.667Z,74.75
2022-08-08T23:05:25.619Z,74.41
2022-08-08T23:08:35.768Z,73.76
2022-08-08T23:12:29.188Z,73.07
2022-08-08T23:14:53.462Z,72.62
2022-08-08T23:17:58.571Z,72.26
2022-08-08T23:21:05.806Z,71.81
2022-08-08T23:24:12.318Z,71.25
2022-08-08T23:27:39.314Z,70.71
2022-08-08T23:30:26.407Z,70.58
2022-08-08T23:34:16.754Z,70.56
2022-08-08T23:36:39.724Z,70.64
2022-08-08T23:39:55.545Z,70.86
2022-08-08T23:42:57.876Z,70.94
2022-08-08T23:49:04.617Z,71.12
2022-08-08T23:49:14.959Z,71.07
2022-08-08T23:52:19.881Z,71.39
2022-08-08T23:55:25.148Z,71.25
2022-08-08T23:58:37.604Z,71.26
